Time;durP1;ratioP1;P1;durP2;ratioP2;P2;SDS_P1;SDS_P2;PMS_P1;PMS_P2;Temp;Humidity;BMP_temperature;BMP_pressure;BME280_temperature;BME280_humidity;BME280_pressure;Samples;Min_cycle;Max_cycle;Signal;HPM_P1;HPM_P2
2021/08/29 00:00:50;;;;;;;2.15;1.00;;;14.50;91.50;;;;;;6311914;22;20248;-73
2021/08/29 00:03:17;;;;;;;1.42;0.60;;;14.50;91.30;;;;;;6315747;22;20015;-74
2021/08/29 00:05:48;;;;;;;1.10;0.65;;;14.50;91.50;;;;;;6316715;22;20303;-73
2021/08/29 00:08:15;;;;;;;1.88;0.90;;;14.50;91.60;;;;;;6316036;22;20026;-74
2021/08/29 00:10:49;;;;;;;1.77;0.90;;;14.50;91.80;;;;;;6316727;22;20027;-74
2021/08/29 00:13:18;;;;;;;6.75;1.50;;;14.50;91.90;;;;;;6316477;22;20046;-74
2021/08/29 00:15:46;;;;;;;4.00;1.30;;;14.60;91.60;;;;;;6288923;22;20257;-74
2021/08/29 00:18:13;;;;;;;3.00;1.20;;;14.50;91.60;;;;;;6315959;22;20322;-75
2021/08/29 00:20:44;;;;;;;2.95;1.17;;;14.50;91.80;;;;;;6314798;22;20027;-74
2021/08/29 00:23:12;;;;;;;2.83;1.10;;;14.50;91.90;;;;;;6315668;22;20087;-74
2021/08/29 00:25:39;;;;;;;4.88;1.17;;;14.50;91.80;;;;;;6313457;22;20023;-74
2021/08/29 00:28:08;;;;;;;2.08;1.20;;;14.50;91.80;;;;;;6314951;22;20188;-74
2021/08/29 00:30:37;;;;;;;2.92;1.20;;;14.50;91.70;;;;;;6313089;22;20037;-74
2021/08/29 00:33:05;;;;;;;2.10;1.13;;;14.60;91.80;;;;;;6314522;22;20015;-74
2021/08/29 00:35:33;;;;;;;5.55;1.98;;;14.60;91.90;;;;;;6312865;22;20057;-74
2021/08/29 00:38:01;;;;;;;2.40;1.08;;;14.50;91.70;;;;;;6315642;22;20023;-74
2021/08/29 00:40:36;;;;;;;2.75;1.27;;;14.50;91.70;;;;;;6311951;22;20187;-74
2021/08/29 00:43:05;;;;;;;2.15;1.15;;;14.60;91.70;;;;;;6314283;22;20050;-74
2021/08/29 00:45:32;;;;;;;2.87;1.33;;;14.60;91.80;;;;;;6313991;22;20019;-75
2021/08/29 00:48:02;;;;;;;2.75;1.27;;;14.60;91.90;;;;;;6313193;22;20015;-74
2021/08/29 00:50:31;;;;;;;2.67;1.50;;;14.60;91.90;;;;;;6286475;22;20019;-74
2021/08/29 00:53:02;;;;;;;4.05;1.42;;;14.60;91.60;;;;;;6312279;22;20378;-74
2021/08/29 00:55:35;;;;;;;2.90;1.20;;;14.60;91.70;;;;;;6314080;22;20122;-74
2021/08/29 00:58:04;;;;;;;2.88;1.35;;;14.50;92.00;;;;;;6287665;22;20015;-74
2021/08/29 01:00:34;;;;;;;3.10;1.47;;;14.50;92.10;;;;;;6279564;22;20019;-74
2021/08/29 01:03:03;;;;;;;2.05;1.05;;;14.60;92.10;;;;;;6289318;22;20420;-74
2021/08/29 01:05:38;;;;;;;3.33;1.45;;;14.60;92.20;;;;;;6288503;22;20162;-74
2021/08/29 01:08:25;;;;;;;3.55;1.60;;;14.50;92.20;;;;;;6287828;22;20365;-74
2021/08/29 01:10:58;;;;;;;3.10;1.38;;;14.60;92.20;;;;;;6289594;22;20242;-74
2021/08/29 01:13:32;;;;;;;2.78;1.35;;;14.60;92.10;;;;;;6315537;22;20015;-74
2021/08/29 01:16:04;;;;;;;4.93;1.40;;;14.60;92.30;;;;;;6289337;22;20019;-75
2021/08/29 01:18:53;;;;;;;3.05;1.45;;;14.60;92.10;;;;;;2617887;22;10022713;-74
2021/08/29 01:21:25;;;;;;;3.20;1.83;;;14.60;92.30;;;;;;5419006;22;10001092;-74
2021/08/29 01:23:56;;;;;;;3.95;1.58;;;14.60;92.30;;;;;;6288647;22;20353;-74
2021/08/29 01:26:35;;;;;;;2.10;1.20;;;14.60;92.30;;;;;;6315759;22;20088;-74
2021/08/29 01:29:06;;;;;;;4.75;1.50;;;14.60;92.10;;;;;;6289873;22;20022;-74
2021/08/29 01:31:39;;;;;;;2.38;1.20;;;14.70;92.50;;;;;;6289790;22;20027;-74
2021/08/29 01:34:11;;;;;;;2.55;1.35;;;14.70;92.20;;;;;;6290343;22;20016;-74
2021/08/29 01:36:43;;;;;;;2.83;1.23;;;14.70;92.00;;;;;;6290295;22;20015;-74
2021/08/29 01:39:21;;;;;;;3.40;1.40;;;14.70;92.20;;;;;;6290008;22;20019;-74
2021/08/29 01:41:54;;;;;;;3.00;1.17;;;14.70;92.00;;;;;;6290691;22;20015;-74
2021/08/29 01:44:25;;;;;;;3.45;1.63;;;14.70;92.10;;;;;;6259210;22;20039;-74
2021/08/29 01:46:53;;;;;;;2.92;1.60;;;14.70;92.10;;;;;;6259608;22;20023;-74
2021/08/29 01:49:23;;;;;;;2.65;1.20;;;14.60;92.20;;;;;;6258982;22;20023;-74
2021/08/29 01:51:51;;;;;;;3.77;1.80;;;14.60;92.30;;;;;;6259538;22;20028;-74
2021/08/29 01:54:25;;;;;;;2.67;1.35;;;14.70;92.40;;;;;;6258646;22;20315;-74
2021/08/29 01:57:13;;;;;;;2.25;1.00;;;14.60;92.30;;;;;;6259169;22;20019;-74
2021/08/29 01:59:46;;;;;;;3.22;1.77;;;14.60;92.40;;;;;;6256328;22;20022;-74
2021/08/29 02:02:14;;;;;;;3.88;1.58;;;14.60;92.50;;;;;;6252473;22;20035;-74
2021/08/29 02:04:43;;;;;;;3.35;1.55;;;14.60;92.60;;;;;;6257679;22;20027;-74
2021/08/29 02:07:25;;;;;;;3.70;1.60;;;14.60;92.70;;;;;;6257365;22;20331;-73
2021/08/29 02:10:06;;;;;;;3.45;1.42;;;14.60;92.70;;;;;;6256283;22;20038;-74
2021/08/29 02:12:38;;;;;;;3.83;1.40;;;14.60;92.70;;;;;;6256810;22;20020;-74
2021/08/29 02:15:13;;;;;;;3.28;1.63;;;14.60;92.60;;;;;;6256700;22;20020;-74
2021/08/29 02:17:42;;;;;;;4.35;2.03;;;14.70;92.60;;;;;;6257105;22;20028;-74
2021/08/29 02:20:15;;;;;;;4.30;1.52;;;14.60;92.70;;;;;;6284087;22;20024;-74
2021/08/29 02:22:47;;;;;;;3.38;1.58;;;14.70;92.80;;;;;;6257452;22;20372;-75
2021/08/29 02:25:15;;;;;;;2.25;1.33;;;14.80;92.60;;;;;;6257242;22;20028;-74
2021/08/29 02:27:44;;;;;;;1.83;0.70;;;14.80;92.40;;;;;;6282685;22;20070;-74
2021/08/29 02:30:17;;;;;;;1.20;0.63;;;14.80;91.70;;;;;;6256446;22;20089;-74
2021/08/29 02:32:46;;;;;;;1.33;0.50;;;14.80;91.00;;;;;;6282197;22;20027;-74
2021/08/29 02:35:14;;;;;;;1.95;0.50;;;14.90;90.60;;;;;;6257323;22;20271;-73
2021/08/29 02:37:49;;;;;;;1.30;0.57;;;14.80;90.70;;;;;;6256850;22;20261;-74
2021/08/29 02:40:18;;;;;;;0.40;0.40;;;14.90;90.60;;;;;;6256675;22;20023;-73
2021/08/29 02:42:48;;;;;;;0.30;0.28;;;14.90;91.10;;;;;;6264255;22;20075;-74
2021/08/29 02:45:20;;;;;;;1.65;0.40;;;14.90;91.30;;;;;;6285512;22;20065;-74
2021/08/29 02:47:48;;;;;;;1.00;0.40;;;14.80;91.30;;;;;;6285334;22;20026;-74
2021/08/29 02:50:17;;;;;;;5.78;0.77;;;14.70;91.20;;;;;;6284766;22;20083;-74
2021/08/29 02:52:47;;;;;;;0.77;0.30;;;14.70;91.70;;;;;;6284736;22;20071;-74
2021/08/29 02:55:16;;;;;;;4.05;0.40;;;14.70;91.80;;;;;;6284732;22;20023;-74
2021/08/29 02:57:47;;;;;;;1.58;0.55;;;14.70;91.80;;;;;;6282178;22;20026;-74
2021/08/29 03:00:34;;;;;;;1.58;0.30;;;14.70;92.10;;;;;;6280817;22;20211;-73
2021/08/29 03:03:13;;;;;;;0.85;0.30;;;14.60;91.90;;;;;;6284796;22;20106;-74
2021/08/29 03:05:41;;;;;;;2.85;0.40;;;14.70;91.90;;;;;;6283261;22;20073;-74
2021/08/29 03:08:09;;;;;;;0.43;0.30;;;14.60;91.80;;;;;;6284692;22;20081;-74
2021/08/29 03:10:37;;;;;;;0.77;0.20;;;14.60;91.70;;;;;;6285768;22;20027;-74
2021/08/29 03:13:05;;;;;;;1.33;0.15;;;14.50;91.80;;;;;;6284120;22;20061;-74
2021/08/29 03:15:57;;;;;;;0.82;0.30;;;14.50;91.90;;;;;;6285407;22;20039;-73
2021/08/29 03:18:45;;;;;;;1.02;0.20;;;14.50;91.90;;;;;;6285991;22;20065;-74
2021/08/29 03:21:48;;;;;;;1.52;0.47;;;14.60;91.80;;;;;;6269658;22;20019;-73
2021/08/29 03:24:22;;;;;;;0.52;0.25;;;14.60;91.70;;;;;;6283815;22;20083;-74
2021/08/29 03:26:51;;;;;;;0.55;0.13;;;14.60;91.50;;;;;;6285350;22;20016;-74
2021/08/29 03:29:23;;;;;;;1.08;0.35;;;14.50;91.80;;;;;;6283237;22;20042;-74
2021/08/29 03:31:54;;;;;;;1.00;0.20;;;14.50;91.70;;;;;;6285504;22;20023;-74
2021/08/29 03:34:24;;;;;;;0.20;0.15;;;14.70;91.30;;;;;;6283114;22;20023;-74
2021/08/29 03:36:52;;;;;;;0.20;0.20;;;14.60;91.30;;;;;;6284973;22;20257;-74
2021/08/29 03:39:28;;;;;;;0.43;0.10;;;14.70;91.30;;;;;;6284177;22;20046;-74
2021/08/29 03:41:59;;;;;;;1.60;0.20;;;14.60;90.80;;;;;;6284927;22;20170;-74
2021/08/29 03:44:29;;;;;;;0.20;0.20;;;14.60;91.10;;;;;;6287708;22;20027;-74
2021/08/29 03:46:59;;;;;;;0.32;0.15;;;14.50;91.30;;;;;;6288300;22;20022;-74
2021/08/29 03:49:45;;;;;;;1.33;0.30;;;14.50;91.30;;;;;;6315520;22;20069;-74
2021/08/29 03:52:19;;;;;;;0.63;0.20;;;14.60;91.70;;;;;;6285735;22;20019;-74
2021/08/29 03:55:17;;;;;;;0.98;0.20;;;14.60;91.90;;;;;;6283239;22;20047;-74
2021/08/29 03:57:45;;;;;;;0.45;0.20;;;14.60;92.00;;;;;;6287566;22;20019;-73
2021/08/29 04:00:13;;;;;;;0.30;0.20;;;14.70;92.10;;;;;;6283978;22;20023;-73
2021/08/29 04:02:46;;;;;;;2.50;0.20;;;14.70;92.00;;;;;;6315442;22;20302;-73
2021/08/29 04:05:31;;;;;;;0.93;0.20;;;14.60;92.00;;;;;;6287809;22;20027;-74
2021/08/29 04:08:02;;;;;;;1.05;0.35;;;14.60;92.00;;;;;;6287703;22;20034;-74
2021/08/29 04:10:33;;;;;;;0.30;0.30;;;14.70;92.20;;;;;;6287255;22;20078;-74
2021/08/29 04:13:01;;;;;;;0.73;0.20;;;14.60;91.90;;;;;;6312744;22;20023;-74
2021/08/29 04:15:50;;;;;;;0.10;0.10;;;14.70;92.20;;;;;;6314292;22;20034;-74
2021/08/29 04:18:21;;;;;;;0.57;0.20;;;14.60;92.00;;;;;;6287135;22;20046;-74
2021/08/29 04:20:54;;;;;;;2.30;0.30;;;14.60;91.90;;;;;;6286956;22;20570;-74
2021/08/29 04:23:26;;;;;;;0.55;0.20;;;14.60;92.00;;;;;;6288201;22;20322;-75
2021/08/29 04:25:54;;;;;;;0.52;0.20;;;14.60;92.20;;;;;;6288617;22;20070;-75
2021/08/29 04:28:21;;;;;;;0.20;0.10;;;14.60;92.00;;;;;;6312190;22;20019;-75
2021/08/29 04:30:51;;;;;;;0.60;0.10;;;14.60;92.10;;;;;;6288287;22;20027;-74
2021/08/29 04:33:20;;;;;;;;;;;14.60;92.20;;;;;;6288531;22;20027;-75
2021/08/29 04:36:16;;;;;;;0.85;0.20;;;14.60;92.10;;;;;;6315288;22;19911;-74
2021/08/29 04:38:46;;;;;;;0.73;0.20;;;14.70;92.10;;;;;;6291042;22;20015;-75
2021/08/29 04:41:13;;;;;;;0.22;0.20;;;14.70;92.00;;;;;;6317079;22;20322;-74
2021/08/29 04:43:41;;;;;;;0.10;0.10;;;14.70;92.20;;;;;;6284874;22;20022;-74
2021/08/29 04:46:08;;;;;;;0.73;0.25;;;14.70;92.00;;;;;;6315662;22;20325;-75
2021/08/29 04:48:38;;;;;;;0.28;0.20;;;14.70;91.90;;;;;;6287743;22;20014;-74
2021/08/29 04:51:06;;;;;;;0.43;0.20;;;14.70;91.70;;;;;;6314795;22;20015;-74
2021/08/29 04:53:33;;;;;;;0.30;0.17;;;14.70;91.90;;;;;;6288001;22;20023;-75
2021/08/29 04:56:01;;;;;;;1.05;0.30;;;14.70;91.90;;;;;;6288512;22;20015;-74
2021/08/29 04:58:37;;;;;;;0.30;0.20;;;14.80;92.00;;;;;;6287757;22;20065;-74
2021/08/29 05:01:06;;;;;;;0.30;0.10;;;14.80;92.00;;;;;;6283626;22;20082;-74
2021/08/29 05:03:36;;;;;;;0.10;0.10;;;14.80;91.80;;;;;;6288671;22;20037;-75
2021/08/29 05:06:09;;;;;;;0.32;0.20;;;14.80;91.70;;;;;;6289632;22;20067;-74
2021/08/29 05:08:37;;;;;;;0.35;0.22;;;14.80;91.60;;;;;;6290737;22;20076;-74
2021/08/29 05:11:05;;;;;;;2.50;0.20;;;14.80;91.70;;;;;;6316890;22;20015;-75
2021/08/29 05:13:37;;;;;;;0.38;0.20;;;14.80;91.70;;;;;;6289860;22;20031;-74
2021/08/29 05:16:05;;;;;;;0.20;0.10;;;14.80;91.80;;;;;;6290402;22;20015;-74
2021/08/29 05:18:33;;;;;;;0.90;0.20;;;14.90;91.80;;;;;;6289588;22;20019;-75
2021/08/29 05:21:16;;;;;;;1.80;0.17;;;14.90;91.70;;;;;;6289933;22;20038;-73
2021/08/29 05:24:11;;;;;;;0.15;0.00;;;14.90;91.20;;;;;;6289938;22;20033;-74
2021/08/29 05:26:49;;;;;;;0.38;0.10;;;15.00;91.50;;;;;;6286194;22;20026;-74
2021/08/29 05:29:17;;;;;;;0.30;0.20;;;15.10;91.50;;;;;;6288187;22;20019;-74
2021/08/29 05:31:46;;;;;;;1.30;0.20;;;15.00;91.30;;;;;;6315712;22;20086;-74
2021/08/29 05:34:19;;;;;;;1.30;0.40;;;15.10;91.30;;;;;;6314632;22;20084;-74
2021/08/29 05:36:49;;;;;;;1.02;0.30;;;15.10;91.10;;;;;;6288579;22;20042;-75
2021/08/29 05:39:17;;;;;;;0.60;0.30;;;15.10;91.00;;;;;;6287474;22;20042;-75
2021/08/29 05:41:45;;;;;;;0.70;0.40;;;15.20;91.20;;;;;;6313788;22;20246;-74
2021/08/29 05:44:31;;;;;;;0.47;0.30;;;15.30;91.10;;;;;;6314726;22;20384;-75
2021/08/29 05:46:59;;;;;;;3.50;0.40;;;15.40;90.90;;;;;;6315985;22;20023;-75
2021/08/29 05:49:30;;;;;;;0.45;0.30;;;15.50;90.80;;;;;;6287354;22;20027;-74
2021/08/29 05:52:02;;;;;;;2.33;0.30;;;15.60;90.60;;;;;;6315982;22;20184;-74
2021/08/29 05:54:33;;;;;;;2.75;0.32;;;15.60;90.40;;;;;;6288330;22;20019;-74
2021/08/29 05:57:01;;;;;;;0.60;0.20;;;15.60;90.00;;;;;;6288536;22;20023;-74
2021/08/29 05:59:29;;;;;;;0.77;0.30;;;15.60;90.20;;;;;;6314248;22;20019;-74
2021/08/29 06:01:56;;;;;;;3.17;0.40;;;15.60;89.80;;;;;;6284169;22;20031;-74
2021/08/29 06:04:26;;;;;;;0.52;0.20;;;15.50;90.40;;;;;;6289196;22;20032;-74
2021/08/29 06:07:15;;;;;;;0.30;0.20;;;15.80;90.50;;;;;;6318490;22;20038;-74
2021/08/29 06:09:51;;;;;;;0.43;0.30;;;16.00;89.50;;;;;;6290877;22;20019;-72
2021/08/29 06:12:19;;;;;;;0.40;0.20;;;15.90;88.90;;;;;;6291760;22;20068;-74
2021/08/29 06:14:48;;;;;;;1.75;0.20;;;15.90;89.40;;;;;;6290873;22;20024;-74
2021/08/29 06:17:15;;;;;;;0.85;0.35;;;16.10;88.80;;;;;;6290120;22;20027;-74
2021/08/29 06:19:43;;;;;;;0.20;0.20;;;16.00;88.80;;;;;;6290037;22;20601;-74
2021/08/29 06:22:10;;;;;;;0.50;0.20;;;15.80;88.40;;;;;;6290379;22;20315;-74
2021/08/29 06:24:55;;;;;;;0.35;0.15;;;15.80;89.10;;;;;;6316079;22;20317;-74
2021/08/29 06:28:02;;;;;;;0.38;0.20;;;15.90;89.20;;;;;;6235255;22;20035;-73
2021/08/29 06:30:49;;;;;;;0.60;0.30;;;15.80;89.00;;;;;;6315337;22;20031;-74
2021/08/29 06:33:40;;;;;;;2.28;0.57;;;15.70;89.30;;;;;;6273388;22;20039;-73
2021/08/29 06:36:14;;;;;;;0.85;0.20;;;15.90;89.70;;;;;;6315624;22;20065;-73
2021/08/29 06:38:41;;;;;;;0.25;0.20;;;15.80;89.00;;;;;;6315675;22;20030;-74
2021/08/29 06:41:12;;;;;;;0.50;0.13;;;15.70;89.10;;;;;;6315622;22;20062;-74
2021/08/29 06:43:43;;;;;;;0.77;0.30;;;15.70;89.70;;;;;;6290233;22;20424;-73
2021/08/29 06:46:29;;;;;;;5.53;0.73;;;15.80;89.60;;;;;;6316303;22;20081;-74
2021/08/29 06:49:14;;;;;;;0.73;0.30;;;15.70;89.70;;;;;;6317644;22;20049;-73
2021/08/29 06:52:08;;;;;;;1.63;0.32;;;15.70;90.10;;;;;;6270005;22;20027;-73
2021/08/29 06:54:57;;;;;;;1.85;0.30;;;15.80;90.00;;;;;;6317789;22;20026;-72
2021/08/29 06:57:58;;;;;;;0.70;0.30;;;15.90;89.80;;;;;;6281946;22;20019;-74
2021/08/29 07:00:27;;;;;;;1.80;0.43;;;15.80;90.20;;;;;;6310973;22;20043;-74
2021/08/29 07:02:57;;;;;;;3.30;0.30;;;15.90;90.20;;;;;;6290397;22;20041;-74
2021/08/29 07:05:26;;;;;;;0.73;0.30;;;15.80;90.30;;;;;;6288237;22;20066;-75
2021/08/29 07:08:16;;;;;;;0.32;0.20;;;15.90;90.10;;;;;;6268007;22;20054;-74
2021/08/29 07:10:47;;;;;;;1.35;0.25;;;15.80;90.10;;;;;;6288548;22;20072;-74
2021/08/29 07:13:39;;;;;;;1.92;0.32;;;15.90;90.00;;;;;;6315633;22;20038;-74
2021/08/29 07:16:06;;;;;;;2.05;0.47;;;16.00;89.50;;;;;;6287908;22;20023;-74
2021/08/29 07:18:34;;;;;;;0.82;0.30;;;16.10;89.10;;;;;;6286900;22;20249;-74
2021/08/29 07:21:20;;;;;;;2.22;0.22;;;16.10;89.10;;;;;;6314836;22;20034;-74
2021/08/29 07:23:56;;;;;;;1.80;0.80;;;16.20;89.30;;;;;;6312664;22;20027;-73
2021/08/29 07:26:42;;;;;;;0.28;0.20;;;16.30;89.30;;;;;;6315086;22;20066;-73
2021/08/29 07:29:30;;;;;;;0.40;0.20;;;16.20;89.10;;;;;;6314270;22;20046;-74
2021/08/29 07:32:15;;;;;;;0.32;0.28;;;16.20;88.90;;;;;;6315279;22;20031;-74
2021/08/29 07:34:43;;;;;;;0.47;0.22;;;16.20;88.90;;;;;;6287357;22;20074;-74
2021/08/29 07:37:31;;;;;;;2.53;0.32;;;16.20;88.50;;;;;;6314202;22;20086;-74
2021/08/29 07:40:03;;;;;;;2.63;0.38;;;16.40;88.90;;;;;;6313986;22;20390;-74
2021/08/29 07:42:33;;;;;;;0.55;0.20;;;16.60;88.60;;;;;;6288497;22;20258;-74
2021/08/29 07:45:09;;;;;;;0.55;0.30;;;16.60;87.10;;;;;;6316330;22;20011;-73
2021/08/29 07:47:41;;;;;;;0.90;0.30;;;16.60;87.60;;;;;;6288989;22;20042;-73
2021/08/29 07:50:10;;;;;;;0.63;0.20;;;16.60;87.40;;;;;;6289928;22;20019;-73
2021/08/29 07:52:39;;;;;;;0.52;0.28;;;16.70;87.10;;;;;;6290134;22;20409;-74
2021/08/29 07:55:25;;;;;;;1.55;0.38;;;16.70;86.50;;;;;;6317328;22;20215;-74
2021/08/29 07:58:20;;;;;;;0.50;0.30;;;16.70;86.20;;;;;;6319185;22;20023;-74
2021/08/29 08:00:52;;;;;;;1.38;0.20;;;16.70;85.60;;;;;;6291084;22;20018;-76
2021/08/29 08:03:38;;;;;;;0.63;0.38;;;16.60;85.90;;;;;;6317089;22;20023;-76
2021/08/29 08:06:40;;;;;;;0.75;0.40;;;16.60;86.40;;;;;;6291097;22;20041;-76
2021/08/29 08:09:43;;;;;;;0.32;0.20;;;16.60;88.30;;;;;;6193233;23;20021;-76
2021/08/29 08:12:30;;;;;;;0.10;0.10;;;16.60;87.80;;;;;;6310723;22;20055;-76
2021/08/29 08:14:58;;;;;;;0.80;0.10;;;16.60;87.70;;;;;;6292279;22;20062;-75
2021/08/29 08:17:27;;;;;;;0.20;0.20;;;16.60;87.50;;;;;;6316910;22;20380;-75
2021/08/29 08:19:54;;;;;;;3.17;0.80;;;16.60;87.80;;;;;;6318126;22;20226;-75
2021/08/29 08:22:21;;;;;;;1.67;0.98;;;16.70;88.10;;;;;;6289183;22;20027;-75
2021/08/29 08:25:25;;;;;;;3.85;0.98;;;16.60;87.50;;;;;;6289930;22;20226;-75
2021/08/29 08:28:12;;;;;;;1.85;0.93;;;16.60;86.80;;;;;;6317483;22;20104;-76
2021/08/29 08:30:57;;;;;;;0.57;0.30;;;16.50;87.60;;;;;;6316045;22;20098;-75
2021/08/29 08:33:44;;;;;;;0.75;0.30;;;16.50;87.90;;;;;;6316318;22;20367;-76
2021/08/29 08:36:40;;;;;;;0.88;0.30;;;16.30;88.90;;;;;;6290700;22;20023;-75
2021/08/29 08:39:33;;;;;;;0.52;0.13;;;16.30;88.40;;;;;;6290371;22;20082;-76
2021/08/29 08:42:08;;;;;;;0.93;0.20;;;16.50;88.30;;;;;;6318426;22;20019;-76
2021/08/29 08:45:05;;;;;;;0.55;0.20;;;16.60;88.00;;;;;;6239614;22;20250;-75
2021/08/29 08:47:50;;;;;;;0.20;0.20;;;16.50;87.80;;;;;;6285991;22;20070;-76
2021/08/29 08:50:38;;;;;;;0.32;0.17;;;16.60;88.20;;;;;;6286295;22;20055;-76
2021/08/29 08:53:25;;;;;;;0.50;0.20;;;16.80;88.10;;;;;;6286265;22;20282;-75
2021/08/29 08:56:12;;;;;;;0.52;0.22;;;17.10;86.80;;;;;;6286315;22;20254;-76
2021/08/29 08:59:17;;;;;;;1.60;0.20;;;17.10;85.80;;;;;;6192450;23;20025;-75
2021/08/29 09:02:04;;;;;;;0.32;0.10;;;17.20;84.80;;;;;;6188153;23;20035;-75
2021/08/29 09:04:51;;;;;;;0.32;0.22;;;17.50;85.50;;;;;;6261780;22;20296;-76
2021/08/29 09:07:21;;;;;;;0.95;0.20;;;17.70;85.40;;;;;;6285118;22;20020;-74
2021/08/29 09:09:48;;;;;;;0.40;0.20;;;17.60;85.10;;;;;;6286475;22;20080;-75
2021/08/29 09:12:16;;;;;;;0.88;0.40;;;17.50;84.70;;;;;;6259143;22;20028;-76
2021/08/29 09:14:45;;;;;;;0.20;0.17;;;17.50;84.80;;;;;;6284782;22;20074;-76
2021/08/29 09:17:26;;;;;;;1.45;0.30;;;17.60;85.10;;;;;;6259350;22;20031;-75
2021/08/29 09:20:20;;;;;;;0.10;0.10;;;17.60;85.70;;;;;;6256762;22;20034;-75
2021/08/29 09:22:54;;;;;;;1.67;0.22;;;17.60;84.10;;;;;;6259187;22;20024;-76
2021/08/29 09:25:43;;;;;;;;;;;17.40;84.60;;;;;;6286487;22;20022;-77
2021/08/29 09:28:27;;;;;;;0.13;0.10;;;17.50;84.90;;;;;;6258161;22;19934;-76
2021/08/29 09:31:00;;;;;;;0.28;0.10;;;17.50;84.30;;;;;;6258935;22;20250;-77
2021/08/29 09:33:32;;;;;;;0.60;0.20;;;17.40;84.20;;;;;;6259111;22;20357;-76
2021/08/29 09:36:01;;;;;;;0.82;0.30;;;17.10;84.50;;;;;;6259315;22;20034;-76
2021/08/29 09:38:51;;;;;;;0.30;0.20;;;17.20;84.90;;;;;;6286032;22;20194;-76
2021/08/29 09:41:24;;;;;;;0.43;0.20;;;17.20;85.20;;;;;;6286022;22;20023;-75
2021/08/29 09:44:07;;;;;;;0.30;0.17;;;17.20;85.10;;;;;;6277922;22;20074;-77
2021/08/29 09:46:34;;;;;;;1.08;0.20;;;17.10;84.70;;;;;;6286013;22;20050;-76
2021/08/29 09:49:27;;;;;;;0.77;0.20;;;17.10;85.80;;;;;;6287017;22;20047;-76
2021/08/29 09:52:09;;;;;;;0.80;0.20;;;17.00;87.20;;;;;;6284872;22;20016;-75
2021/08/29 09:54:48;;;;;;;0.15;0.10;;;17.10;85.90;;;;;;6284995;22;20403;-75
2021/08/29 09:57:51;;;;;;;0.60;0.25;;;17.10;85.90;;;;;;6219826;22;20020;-77
2021/08/29 10:00:40;;;;;;;1.10;0.40;;;17.00;86.10;;;;;;6279636;22;20211;-76
2021/08/29 10:03:08;;;;;;;1.55;0.47;;;16.90;86.80;;;;;;6287788;22;20007;-76
2021/08/29 10:06:14;;;;;;;1.42;0.20;;;16.80;87.70;;;;;;6285029;22;20027;-76
2021/08/29 10:08:43;;;;;;;0.22;0.20;;;16.80;87.00;;;;;;6284684;22;20023;-76
2021/08/29 10:11:25;;;;;;;0.15;0.10;;;16.90;86.20;;;;;;6284563;22;20027;-76
2021/08/29 10:13:53;;;;;;;;;;;17.00;86.80;;;;;;6287498;22;20023;-76
2021/08/29 10:16:23;;;;;;;0.52;0.17;;;17.10;85.70;;;;;;6283881;22;19952;-76
2021/08/29 10:19:10;;;;;;;0.10;0.10;;;17.00;86.00;;;;;;6285102;22;20025;-75
2021/08/29 10:22:03;;;;;;;0.30;0.10;;;16.80;87.10;;;;;;6284255;22;20131;-75
2021/08/29 10:24:32;;;;;;;3.35;1.42;;;16.80;86.80;;;;;;6282086;22;20053;-76
2021/08/29 10:27:06;;;;;;;2.03;0.60;;;16.80;87.50;;;;;;6282404;22;20027;-75
2021/08/29 10:30:05;;;;;;;0.93;0.50;;;16.90;86.10;;;;;;6248685;22;20027;-75
2021/08/29 10:33:12;;;;;;;3.95;0.98;;;16.90;86.90;;;;;;6282217;22;20264;-75
2021/08/29 10:35:54;;;;;;;1.65;0.52;;;17.20;86.60;;;;;;6307132;22;20311;-76
2021/08/29 10:38:46;;;;;;;2.25;0.40;;;17.30;85.80;;;;;;6268147;22;20085;-76
2021/08/29 10:41:23;;;;;;;3.65;0.93;;;17.60;85.80;;;;;;6284029;22;20031;-77
2021/08/29 10:43:57;;;;;;;2.70;0.68;;;17.60;85.60;;;;;;6282677;22;20196;-75
2021/08/29 10:46:46;;;;;;;1.05;0.60;;;17.50;85.40;;;;;;6284766;22;20065;-76
2021/08/29 10:49:33;;;;;;;1.00;0.30;;;17.50;84.80;;;;;;6284898;22;20037;-74
2021/08/29 10:52:07;;;;;;;2.97;0.60;;;17.50;85.00;;;;;;6281433;22;20262;-76
2021/08/29 10:54:39;;;;;;;0.60;0.30;;;17.40;86.00;;;;;;6284524;22;20027;-76
2021/08/29 10:57:28;;;;;;;2.85;0.50;;;17.50;85.30;;;;;;6283780;22;20323;-76
2021/08/29 11:00:12;;;;;;;0.20;0.20;;;17.60;84.90;;;;;;6283010;22;20019;-76
2021/08/29 11:02:42;;;;;;;0.22;0.20;;;17.50;85.30;;;;;;6284400;22;20016;-76
2021/08/29 11:05:54;;;;;;;5.50;0.43;;;17.60;84.90;;;;;;6286159;22;20031;-76
2021/08/29 11:08:30;;;;;;;0.68;0.30;;;17.60;85.60;;;;;;6283738;22;20070;-75
2021/08/29 11:11:00;;;;;;;1.27;0.38;;;17.60;84.10;;;;;;6285497;22;20023;-75
2021/08/29 11:13:41;;;;;;;1.60;0.50;;;17.70;84.30;;;;;;6287393;22;20244;-76
2021/08/29 11:16:22;;;;;;;0.60;0.30;;;17.70;85.00;;;;;;6286029;22;20024;-77
2021/08/29 11:19:14;;;;;;;1.38;0.52;;;17.90;85.50;;;;;;6287089;22;20020;-76
2021/08/29 11:22:20;;;;;;;1.40;0.52;;;18.00;84.70;;;;;;6252522;22;20250;-76
2021/08/29 11:25:18;;;;;;;1.42;0.25;;;17.90;84.30;;;;;;6287263;22;20252;-77
2021/08/29 11:28:04;;;;;;;0.80;0.25;;;17.80;85.40;;;;;;6289670;22;20070;-77
2021/08/29 11:30:52;;;;;;;0.80;0.20;;;17.70;85.20;;;;;;6284737;22;20026;-76
2021/08/29 11:33:34;;;;;;;0.50;0.32;;;17.80;83.50;;;;;;6284998;22;20342;-76
2021/08/29 11:36:28;;;;;;;0.20;0.20;;;17.70;83.80;;;;;;6284914;22;20122;-76
2021/08/29 11:39:01;;;;;;;0.63;0.20;;;17.70;85.10;;;;;;6286089;22;20019;-75
2021/08/29 11:41:32;;;;;;;2.20;0.40;;;17.70;84.00;;;;;;6285620;22;20015;-76
2021/08/29 11:44:01;;;;;;;0.60;0.10;;;17.80;83.70;;;;;;6289757;22;20283;-76
2021/08/29 11:46:53;;;;;;;0.13;0.13;;;17.90;84.00;;;;;;6287591;22;20023;-75
2021/08/29 11:49:29;;;;;;;1.75;0.47;;;17.90;83.80;;;;;;6316171;22;20226;-75
2021/08/29 11:51:57;;;;;;;0.90;0.43;;;17.90;83.90;;;;;;6289787;22;20019;-76
2021/08/29 11:54:32;;;;;;;1.13;0.20;;;18.00;84.30;;;;;;6315673;22;20027;-75
2021/08/29 11:57:02;;;;;;;0.40;0.20;;;18.00;83.80;;;;;;6316657;22;20015;-76
2021/08/29 11:59:32;;;;;;;0.80;0.20;;;17.90;83.50;;;;;;6288913;22;20072;-76
2021/08/29 12:02:10;;;;;;;0.57;0.30;;;18.00;84.60;;;;;;6284103;22;20023;-76
2021/08/29 12:04:52;;;;;;;1.95;0.20;;;18.20;85.10;;;;;;6287998;22;20026;-75
2021/08/29 12:07:46;;;;;;;0.20;0.20;;;18.20;85.20;;;;;;6252523;22;20022;-75
2021/08/29 12:10:33;;;;;;;0.38;0.20;;;18.10;84.30;;;;;;6315809;22;20074;-75
2021/08/29 12:13:21;;;;;;;0.43;0.30;;;18.20;84.60;;;;;;6314303;22;20079;-76
2021/08/29 12:16:16;;;;;;;1.98;0.43;;;18.60;84.00;;;;;;6256748;22;20023;-77
2021/08/29 12:19:10;;;;;;;1.25;0.52;;;18.70;83.20;;;;;;6284027;22;20023;-75
2021/08/29 12:22:04;;;;;;;2.30;0.30;;;18.90;82.30;;;;;;6295144;22;20358;-75
2021/08/29 12:25:00;;;;;;;;;;;18.60;81.90;;;;;;6282697;22;20338;-75
2021/08/29 12:27:29;;;;;;;0.70;0.17;;;18.30;83.10;;;;;;6288632;22;19968;-76
2021/08/29 12:29:59;;;;;;;2.50;0.82;;;18.40;82.40;;;;;;6291948;22;20030;-75
2021/08/29 12:32:30;;;;;;;0.85;0.47;;;18.30;83.10;;;;;;6292855;22;20334;-76
2021/08/29 12:34:59;;;;;;;0.70;0.40;;;18.20;82.70;;;;;;6288465;22;20191;-76
2021/08/29 12:37:33;;;;;;;1.98;0.40;;;18.30;83.30;;;;;;6288084;22;20023;-75
2021/08/29 12:40:06;;;;;;;1.13;0.40;;;18.50;82.70;;;;;;6287802;22;20015;-76
2021/08/29 12:42:36;;;;;;;0.55;0.20;;;18.40;82.90;;;;;;6289441;22;20066;-75
2021/08/29 12:45:18;;;;;;;1.90;0.20;;;18.50;81.60;;;;;;6289366;22;20351;-76
2021/08/29 12:47:47;;;;;;;0.85;0.40;;;18.70;82.20;;;;;;6314719;22;20015;-76
2021/08/29 12:50:19;;;;;;;0.85;0.20;;;18.60;82.40;;;;;;6314854;22;20070;-75
2021/08/29 12:52:50;;;;;;;1.13;0.35;;;18.80;81.30;;;;;;6316408;22;20019;-77
2021/08/29 12:55:20;;;;;;;0.60;0.35;;;18.70;81.40;;;;;;6317910;22;20026;-75
2021/08/29 12:57:55;;;;;;;0.80;0.32;;;18.80;81.50;;;;;;6316425;22;20023;-77
2021/08/29 13:00:22;;;;;;;0.40;0.20;;;18.70;81.40;;;;;;6312177;22;20027;-76
2021/08/29 13:02:50;;;;;;;0.38;0.22;;;18.70;80.00;;;;;;6319225;22;20025;-76
2021/08/29 13:05:17;;;;;;;1.27;0.50;;;18.80;80.20;;;;;;6289340;22;20314;-77
2021/08/29 13:07:50;;;;;;;2.08;0.70;;;18.80;79.60;;;;;;6316765;22;20018;-76
2021/08/29 13:10:19;;;;;;;2.97;0.55;;;18.90;79.80;;;;;;6289602;22;20026;-76
2021/08/29 13:12:47;;;;;;;0.97;0.43;;;18.90;80.90;;;;;;6317264;22;20023;-76
2021/08/29 13:15:25;;;;;;;1.05;0.35;;;18.60;80.70;;;;;;6317600;22;20027;-76
2021/08/29 13:17:52;;;;;;;0.75;0.30;;;18.60;81.20;;;;;;6289769;22;20035;-76
2021/08/29 13:20:19;;;;;;;1.10;0.28;;;18.60;81.30;;;;;;6316162;22;20030;-76
2021/08/29 13:22:47;;;;;;;0.85;0.20;;;18.60;81.70;;;;;;6316783;22;20070;-76
2021/08/29 13:25:28;;;;;;;2.42;0.25;;;18.40;82.20;;;;;;6316763;22;20062;-76
2021/08/29 13:27:58;;;;;;;0.55;0.20;;;18.40;82.20;;;;;;6291619;22;20114;-76
2021/08/29 13:30:27;;;;;;;0.40;0.20;;;18.20;84.20;;;;;;6290226;22;20041;-76
2021/08/29 13:32:56;;;;;;;0.47;0.17;;;18.10;84.20;;;;;;6317866;22;20023;-76
2021/08/29 13:35:25;;;;;;;1.85;0.30;;;18.20;84.80;;;;;;6317201;22;20215;-76